Sao Luiz, Brazil
Current Conditions -  °F | °C
As of 6:00 PM on Monday 20 Oct 2014 (Local Time) from SBBV Reporting Station
Few Clouds Few Clouds  
Wind Chill: 86°   Ceiling: Unl
Heat Index: 87°   Visibility: 6mi
Dew Point: 64°   Wind: 6mph
Humidity: 48%   Direction: 90°E
Pressure: 29.74"   Gusts: NA
Location:  1.01°N, 60.02°W
Report Text: SBBV 202200Z 09005KT 9999 FEW035 30/18 Q1007
Loading
Personal Weather Stations






























Interactive Weather Map
Tropical Storm Tracking
New forecast layout! Learn more

10-Day Weather Forecast

Advertisements
Track Severe Weather on mobile